sensor_id;sensor_type;location;lat;lon;timestamp;pressure;altitude;pressure_sealevel;temperature;humidity
21760;BME280;11041;50.854;20.580;2022-12-18T00:01:39;100052.50;;;-5.60;90.96
21760;BME280;11041;50.854;20.580;2022-12-18T00:04:16;100063.31;;;-5.53;91.16
21760;BME280;11041;50.854;20.580;2022-12-18T00:06:45;100046.63;;;-5.55;90.62
21760;BME280;11041;50.854;20.580;2022-12-18T00:09:11;100064.50;;;-5.56;90.17
21760;BME280;11041;50.854;20.580;2022-12-18T00:11:38;100076.09;;;-5.55;90.27
21760;BME280;11041;50.854;20.580;2022-12-18T00:14:04;100077.25;;;-5.58;90.08
21760;BME280;11041;50.854;20.580;2022-12-18T00:16:31;100073.28;;;-5.62;89.73
21760;BME280;11041;50.854;20.580;2022-12-18T00:19:00;100082.13;;;-5.62;89.62
21760;BME280;11041;50.854;20.580;2022-12-18T00:21:28;100077.59;;;-5.61;89.25
21760;BME280;11041;50.854;20.580;2022-12-18T00:23:57;100095.03;;;-5.65;89.47
21760;BME280;11041;50.854;20.580;2022-12-18T00:26:27;100088.69;;;-5.64;89.40
21760;BME280;11041;50.854;20.580;2022-12-18T00:28:58;100098.88;;;-5.60;88.57
21760;BME280;11041;50.854;20.580;2022-12-18T00:31:26;100098.06;;;-5.68;88.54
21760;BME280;11041;50.854;20.580;2022-12-18T00:33:58;100107.44;;;-5.64;88.43
21760;BME280;11041;50.854;20.580;2022-12-18T00:36:34;100116.94;;;-5.62;88.41
21760;BME280;11041;50.854;20.580;2022-12-18T00:39:03;100097.38;;;-5.62;88.30
21760;BME280;11041;50.854;20.580;2022-12-18T00:41:31;100117.97;;;-5.63;87.56
21760;BME280;11041;50.854;20.580;2022-12-18T00:44:18;100118.50;;;-5.67;87.89
21760;BME280;11041;50.854;20.580;2022-12-18T00:46:46;100121.34;;;-5.69;87.65
21760;BME280;11041;50.854;20.580;2022-12-18T00:49:13;100121.19;;;-5.75;87.76
21760;BME280;11041;50.854;20.580;2022-12-18T00:51:40;100116.88;;;-5.76;87.93
21760;BME280;11041;50.854;20.580;2022-12-18T00:54:07;100124.47;;;-5.65;86.67
21760;BME280;11041;50.854;20.580;2022-12-18T00:56:37;100148.56;;;-5.57;86.11
21760;BME280;11041;50.854;20.580;2022-12-18T00:59:04;100148.03;;;-5.52;86.54
21760;BME280;11041;50.854;20.580;2022-12-18T01:01:40;100144.19;;;-5.58;86.49
21760;BME280;11041;50.854;20.580;2022-12-18T01:04:16;100146.53;;;-5.55;86.32
21760;BME280;11041;50.854;20.580;2022-12-18T01:06:43;100156.53;;;-5.49;86.59
21760;BME280;11041;50.854;20.580;2022-12-18T01:09:09;100159.41;;;-5.50;86.30
21760;BME280;11041;50.854;20.580;2022-12-18T01:11:36;100157.69;;;-5.43;85.90
21760;BME280;11041;50.854;20.580;2022-12-18T01:14:02;100164.53;;;-5.41;85.29
21760;BME280;11041;50.854;20.580;2022-12-18T01:16:29;100162.38;;;-5.45;85.19
21760;BME280;11041;50.854;20.580;2022-12-18T01:18:55;100155.53;;;-5.48;85.41
21760;BME280;11041;50.854;20.580;2022-12-18T01:21:23;100165.53;;;-5.42;85.75
21760;BME280;11041;50.854;20.580;2022-12-18T01:23:55;100168.03;;;-5.40;86.13
21760;BME280;11041;50.854;20.580;2022-12-18T01:26:23;100162.84;;;-5.42;85.71
21760;BME280;11041;50.854;20.580;2022-12-18T01:28:50;100166.03;;;-5.38;86.18
21760;BME280;11041;50.854;20.580;2022-12-18T01:31:28;100168.66;;;-5.30;85.22
21760;BME280;11041;50.854;20.580;2022-12-18T01:33:57;100166.31;;;-5.33;85.04
21760;BME280;11041;50.854;20.580;2022-12-18T01:36:28;100161.09;;;-5.26;85.19
21760;BME280;11041;50.854;20.580;2022-12-18T01:38:55;100148.00;;;-5.21;84.20
21760;BME280;11041;50.854;20.580;2022-12-18T01:41:27;100164.19;;;-5.15;84.52
21760;BME280;11041;50.854;20.580;2022-12-18T01:44:50;100173.06;;;-5.14;84.36
21760;BME280;11041;50.854;20.580;2022-12-18T01:50:20;100195.50;;;-5.15;84.51
21760;BME280;11041;50.854;20.580;2022-12-18T01:53:05;100182.84;;;-5.21;84.66
21760;BME280;11041;50.854;20.580;2022-12-18T01:55:51;100193.19;;;-5.18;84.67
21760;BME280;11041;50.854;20.580;2022-12-18T02:01:23;100179.66;;;-5.25;84.99
21760;BME280;11041;50.854;20.580;2022-12-18T02:03:51;100195.03;;;-5.19;84.60
21760;BME280;11041;50.854;20.580;2022-12-18T02:06:40;100188.22;;;-5.29;84.53
21760;BME280;11041;50.854;20.580;2022-12-18T02:09:19;100183.59;;;-5.36;85.12
21760;BME280;11041;50.854;20.580;2022-12-18T02:15:24;100210.81;;;-5.24;84.97
21760;BME280;11041;50.854;20.580;2022-12-18T02:18:19;100218.56;;;-5.29;85.12
21760;BME280;11041;50.854;20.580;2022-12-18T02:21:40;100213.06;;;-5.36;85.85
21760;BME280;11041;50.854;20.580;2022-12-18T02:27:37;100219.38;;;-5.28;85.04
21760;BME280;11041;50.854;20.580;2022-12-18T02:30:06;100217.91;;;-5.31;85.10
21760;BME280;11041;50.854;20.580;2022-12-18T02:32:49;100234.94;;;-5.24;85.84
21760;BME280;11041;50.854;20.580;2022-12-18T02:35:29;100227.38;;;-5.20;85.65
21760;BME280;11041;50.854;20.580;2022-12-18T02:37:57;100227.56;;;-5.22;85.64
21760;BME280;11041;50.854;20.580;2022-12-18T02:40:27;100230.25;;;-5.22;85.00
21760;BME280;11041;50.854;20.580;2022-12-18T02:42:55;100235.03;;;-5.17;85.40
21760;BME280;11041;50.854;20.580;2022-12-18T02:45:21;100234.56;;;-5.21;85.68
21760;BME280;11041;50.854;20.580;2022-12-18T02:47:50;100233.44;;;-5.26;86.08
21760;BME280;11041;50.854;20.580;2022-12-18T02:50:34;100238.09;;;-5.20;85.81
21760;BME280;11041;50.854;20.580;2022-12-18T02:56:33;100248.34;;;-5.24;86.12
21760;BME280;11041;50.854;20.580;2022-12-18T02:59:17;100251.19;;;-5.25;86.57
21760;BME280;11041;50.854;20.580;2022-12-18T03:04:46;100246.53;;;-5.31;86.49
21760;BME280;11041;50.854;20.580;2022-12-18T03:07:35;100252.22;;;-5.35;87.06
21760;BME280;11041;50.854;20.580;2022-12-18T03:15:18;100281.25;;;-5.15;87.30
21760;BME280;11041;50.854;20.580;2022-12-18T04:06:16;100323.63;;;-5.50;89.32
21760;BME280;11041;50.854;20.580;2022-12-18T04:08:50;100328.78;;;-5.40;89.16
21760;BME280;11041;50.854;20.580;2022-12-18T04:11:17;100338.66;;;-5.41;89.15
21760;BME280;11041;50.854;20.580;2022-12-18T04:13:44;100338.50;;;-5.47;88.86
21760;BME280;11041;50.854;20.580;2022-12-18T04:16:10;100340.69;;;-5.43;89.40
21760;BME280;11041;50.854;20.580;2022-12-18T04:18:37;100349.06;;;-5.46;89.88
21760;BME280;11041;50.854;20.580;2022-12-18T04:21:04;100353.06;;;-5.42;89.80
21760;BME280;11041;50.854;20.580;2022-12-18T04:23:31;100357.03;;;-5.29;89.84
21760;BME280;11041;50.854;20.580;2022-12-18T04:25:57;100362.38;;;-5.21;89.46
21760;BME280;11041;50.854;20.580;2022-12-18T04:28:27;100359.84;;;-5.23;89.36
21760;BME280;11041;50.854;20.580;2022-12-18T04:31:06;100364.22;;;-5.22;89.16
21760;BME280;11041;50.854;20.580;2022-12-18T04:33:32;100373.41;;;-5.16;88.56
21760;BME280;11041;50.854;20.580;2022-12-18T04:36:04;100373.09;;;-5.21;88.18
21760;BME280;11041;50.854;20.580;2022-12-18T04:38:31;100376.59;;;-5.21;88.06
21760;BME280;11041;50.854;20.580;2022-12-18T04:40:58;100387.53;;;-5.30;88.39
21760;BME280;11041;50.854;20.580;2022-12-18T04:43:25;100386.19;;;-5.35;88.73
21760;BME280;11041;50.854;20.580;2022-12-18T04:45:51;100395.41;;;-5.29;88.63
21760;BME280;11041;50.854;20.580;2022-12-18T04:48:18;100401.59;;;-5.28;88.84
21760;BME280;11041;50.854;20.580;2022-12-18T04:50:47;100406.59;;;-5.25;88.17
21760;BME280;11041;50.854;20.580;2022-12-18T04:53:14;100411.63;;;-5.30;88.94
21760;BME280;11041;50.854;20.580;2022-12-18T04:55:40;100398.44;;;-5.40;89.00
21760;BME280;11041;50.854;20.580;2022-12-18T04:58:07;100403.28;;;-5.44;89.10
21760;BME280;11041;50.854;20.580;2022-12-18T05:00:33;100410.66;;;-5.38;89.41
21760;BME280;11041;50.854;20.580;2022-12-18T05:03:01;100410.81;;;-5.39;89.37
21760;BME280;11041;50.854;20.580;2022-12-18T05:05:28;100418.34;;;-5.35;89.45
21760;BME280;11041;50.854;20.580;2022-12-18T05:07:55;100415.34;;;-5.31;89.31
21760;BME280;11041;50.854;20.580;2022-12-18T05:10:21;100409.13;;;-5.32;89.03
21760;BME280;11041;50.854;20.580;2022-12-18T05:12:48;100412.31;;;-5.28;89.61
21760;BME280;11041;50.854;20.580;2022-12-18T05:15:31;100423.16;;;-5.14;89.12
21760;BME280;11041;50.854;20.580;2022-12-18T05:17:59;100422.97;;;-5.12;88.84
21760;BME280;11041;50.854;20.580;2022-12-18T05:20:27;100437.38;;;-5.05;88.74
21760;BME280;11041;50.854;20.580;2022-12-18T05:22:54;100435.69;;;-5.06;88.79
21760;BME280;11041;50.854;20.580;2022-12-18T05:25:22;100425.16;;;-5.07;88.78
21760;BME280;11041;50.854;20.580;2022-12-18T05:27:49;100434.69;;;-5.05;88.73
21760;BME280;11041;50.854;20.580;2022-12-18T05:30:16;100443.34;;;-4.95;88.03
21760;BME280;11041;50.854;20.580;2022-12-18T05:32:43;100436.00;;;-5.01;88.14
21760;BME280;11041;50.854;20.580;2022-12-18T05:35:11;100445.69;;;-4.92;87.90
21760;BME280;11041;50.854;20.580;2022-12-18T05:37:37;100439.69;;;-5.02;88.32
21760;BME280;11041;50.854;20.580;2022-12-18T05:40:05;100453.06;;;-4.94;88.43
21760;BME280;11041;50.854;20.580;2022-12-18T05:42:32;100440.69;;;-5.03;88.15
21760;BME280;11041;50.854;20.580;2022-12-18T05:44:58;100453.78;;;-5.00;88.29
21760;BME280;11041;50.854;20.580;2022-12-18T05:47:26;100456.09;;;-4.97;88.12
21760;BME280;11041;50.854;20.580;2022-12-18T05:49:52;100449.91;;;-4.97;87.48
21760;BME280;11041;50.854;20.580;2022-12-18T05:52:19;100456.94;;;-4.96;87.53
21760;BME280;11041;50.854;20.580;2022-12-18T05:54:45;100463.16;;;-5.04;87.30
21760;BME280;11041;50.854;20.580;2022-12-18T05:57:12;100464.34;;;-5.06;87.70
21760;BME280;11041;50.854;20.580;2022-12-18T05:59:38;100468.88;;;-5.07;88.31
21760;BME280;11041;50.854;20.580;2022-12-18T06:02:05;100470.72;;;-5.07;87.87
21760;BME280;11041;50.854;20.580;2022-12-18T06:04:32;100476.41;;;-5.02;87.61
21760;BME280;11041;50.854;20.580;2022-12-18T06:06:59;100486.97;;;-5.09;87.44
21760;BME280;11041;50.854;20.580;2022-12-18T06:09:25;100494.50;;;-5.13;87.99
21760;BME280;11041;50.854;20.580;2022-12-18T06:11:52;100493.53;;;-5.28;88.13
21760;BME280;11041;50.854;20.580;2022-12-18T06:14:19;100513.44;;;-5.22;88.14
21760;BME280;11041;50.854;20.580;2022-12-18T06:16:45;100495.38;;;-5.28;88.41
21760;BME280;11041;50.854;20.580;2022-12-18T06:19:16;100498.84;;;-5.20;87.98
21760;BME280;11041;50.854;20.580;2022-12-18T06:21:43;100507.59;;;-5.26;87.92
21760;BME280;11041;50.854;20.580;2022-12-18T06:24:09;100501.56;;;-5.28;88.05
21760;BME280;11041;50.854;20.580;2022-12-18T06:26:39;100498.38;;;-5.23;87.75
21760;BME280;11041;50.854;20.580;2022-12-18T06:29:06;100498.22;;;-5.22;87.72
21760;BME280;11041;50.854;20.580;2022-12-18T06:31:33;100505.72;;;-5.17;87.74
21760;BME280;11041;50.854;20.580;2022-12-18T06:34:03;100513.25;;;-5.13;87.38
21760;BME280;11041;50.854;20.580;2022-12-18T06:36:30;100511.44;;;-5.20;86.99
21760;BME280;11041;50.854;20.580;2022-12-18T06:38:58;100517.13;;;-5.23;87.06
21760;BME280;11041;50.854;20.580;2022-12-18T06:41:25;100517.28;;;-5.25;87.05
21760;BME280;11041;50.854;20.580;2022-12-18T06:43:52;100530.88;;;-5.26;87.18
21760;BME280;11041;50.854;20.580;2022-12-18T06:46:18;100519.47;;;-5.28;87.34
21760;BME280;11041;50.854;20.580;2022-12-18T06:48:50;100520.16;;;-5.35;86.88
21760;BME280;11041;50.854;20.580;2022-12-18T06:51:20;100519.97;;;-5.41;86.90
21760;BME280;11041;50.854;20.580;2022-12-18T06:53:47;100527.88;;;-5.48;87.43
21760;BME280;11041;50.854;20.580;2022-12-18T06:56:13;100536.56;;;-5.46;86.84
21760;BME280;11041;50.854;20.580;2022-12-18T06:58:40;100548.63;;;-5.42;87.30
21760;BME280;11041;50.854;20.580;2022-12-18T07:01:10;100545.94;;;-5.42;86.94
21760;BME280;11041;50.854;20.580;2022-12-18T07:03:39;100546.75;;;-5.41;87.10
21760;BME280;11041;50.854;20.580;2022-12-18T07:06:11;100547.59;;;-5.49;86.69
21760;BME280;11041;50.854;20.580;2022-12-18T07:08:39;100553.78;;;-5.48;86.79
21760;BME280;11041;50.854;20.580;2022-12-18T07:11:05;100558.84;;;-5.45;86.63
21760;BME280;11041;50.854;20.580;2022-12-18T07:13:32;100550.63;;;-5.52;86.86
21760;BME280;11041;50.854;20.580;2022-12-18T07:16:17;100578.75;;;-5.40;86.75
21760;BME280;11041;50.854;20.580;2022-12-18T07:18:44;100582.44;;;-5.41;87.23
21760;BME280;11041;50.854;20.580;2022-12-18T07:21:18;100586.13;;;-5.42;87.11
21760;BME280;11041;50.854;20.580;2022-12-18T07:23:44;100584.28;;;-5.49;86.78
21760;BME280;11041;50.854;20.580;2022-12-18T07:26:17;100588.47;;;-5.47;86.85
21760;BME280;11041;50.854;20.580;2022-12-18T07:28:44;100575.41;;;-5.50;86.78
21760;BME280;11041;50.854;20.580;2022-12-18T07:31:15;100577.06;;;-5.49;86.60
21760;BME280;11041;50.854;20.580;2022-12-18T07:33:43;100587.28;;;-5.52;86.61
21760;BME280;11041;50.854;20.580;2022-12-18T07:36:10;100601.53;;;-5.60;87.38
21760;BME280;11041;50.854;20.580;2022-12-18T07:38:38;100599.16;;;-5.63;87.42
21760;BME280;11041;50.854;20.580;2022-12-18T07:41:10;100598.31;;;-5.72;87.00
21760;BME280;11041;50.854;20.580;2022-12-18T07:43:38;100618.72;;;-5.71;87.76
21760;BME280;11041;50.854;20.580;2022-12-18T07:46:07;100613.72;;;-5.66;88.22
21760;BME280;11041;50.854;20.580;2022-12-18T07:48:34;100606.31;;;-5.80;87.74
21760;BME280;11041;50.854;20.580;2022-12-18T07:51:03;100610.84;;;-5.72;88.04
21760;BME280;11041;50.854;20.580;2022-12-18T07:53:31;100624.91;;;-5.79;87.82
21760;BME280;11041;50.854;20.580;2022-12-18T07:56:00;100625.25;;;-5.73;87.92
21760;BME280;11041;50.854;20.580;2022-12-18T07:58:29;100626.75;;;-5.79;87.67
21760;BME280;11041;50.854;20.580;2022-12-18T08:01:07;100624.38;;;-5.82;88.36
21760;BME280;11041;50.854;20.580;2022-12-18T08:03:34;100619.88;;;-5.73;88.28
21760;BME280;11041;50.854;20.580;2022-12-18T08:06:08;100642.19;;;-5.48;88.02
21760;BME280;11041;50.854;20.580;2022-12-18T08:08:36;100645.72;;;-5.48;88.02
21760;BME280;11041;50.854;20.580;2022-12-18T08:11:03;100647.41;;;-5.47;87.82
21760;BME280;11041;50.854;20.580;2022-12-18T08:13:37;100662.50;;;-5.38;88.03
21760;BME280;11041;50.854;20.580;2022-12-18T08:16:07;100662.69;;;-5.31;87.56
21760;BME280;11041;50.854;20.580;2022-12-18T08:18:35;100667.50;;;-5.35;86.74
21760;BME280;11041;50.854;20.580;2022-12-18T08:21:28;100660.44;;;-5.52;86.57
21760;BME280;11041;50.854;20.580;2022-12-18T08:23:58;100665.16;;;-5.46;86.89
21760;BME280;11041;50.854;20.580;2022-12-18T08:26:28;100664.97;;;-5.52;86.91
21760;BME280;11041;50.854;20.580;2022-12-18T08:28:57;100685.38;;;-5.51;86.80
21760;BME280;11041;50.854;20.580;2022-12-18T08:31:27;100676.38;;;-5.50;87.18
21760;BME280;11041;50.854;20.580;2022-12-18T08:33:55;100669.50;;;-5.45;87.17
21760;BME280;11041;50.854;20.580;2022-12-18T08:36:23;100665.81;;;-5.44;87.25
21760;BME280;11041;50.854;20.580;2022-12-18T08:38:56;100664.19;;;-5.28;86.45
21760;BME280;11041;50.854;20.580;2022-12-18T08:41:23;100665.50;;;-5.32;86.82
21760;BME280;11041;50.854;20.580;2022-12-18T08:43:50;100680.94;;;-5.18;86.03
21760;BME280;11041;50.854;20.580;2022-12-18T08:46:42;100685.66;;;-5.12;86.59
21760;BME280;11041;50.854;20.580;2022-12-18T08:49:10;100684.13;;;-5.23;85.53
21760;BME280;11041;50.854;20.580;2022-12-18T08:51:38;100690.97;;;-5.20;85.97
21760;BME280;11041;50.854;20.580;2022-12-18T08:54:06;100694.69;;;-5.21;86.51
21760;BME280;11041;50.854;20.580;2022-12-18T08:56:34;100687.09;;;-5.34;86.68
21760;BME280;11041;50.854;20.580;2022-12-18T08:59:00;100677.25;;;-5.33;86.66
21760;BME280;11041;50.854;20.580;2022-12-18T09:02:01;100684.94;;;-5.30;86.93
21760;BME280;11041;50.854;20.580;2022-12-18T09:04:28;100690.16;;;-5.21;86.96
21760;BME280;11041;50.854;20.580;2022-12-18T09:06:56;100690.69;;;-5.09;87.21
21760;BME280;11041;50.854;20.580;2022-12-18T09:09:22;100702.41;;;-5.02;86.85
21760;BME280;11041;50.854;20.580;2022-12-18T09:11:48;100688.66;;;-4.99;86.96
21760;BME280;11041;50.854;20.580;2022-12-18T09:14:15;100704.78;;;-4.82;85.30
21760;BME280;11041;50.854;20.580;2022-12-18T09:16:42;100706.13;;;-4.70;84.82
21760;BME280;11041;50.854;20.580;2022-12-18T09:19:10;100694.72;;;-4.72;84.08
21760;BME280;11041;50.854;20.580;2022-12-18T09:21:37;100717.84;;;-4.63;83.62
21760;BME280;11041;50.854;20.580;2022-12-18T09:24:05;100712.00;;;-4.66;83.80
21760;BME280;11041;50.854;20.580;2022-12-18T09:29:16;100709.47;;;-4.68;83.12
21760;BME280;11041;50.854;20.580;2022-12-18T09:31:42;100711.47;;;-4.70;83.21
21760;BME280;11041;50.854;20.580;2022-12-18T09:34:09;100710.81;;;-4.64;83.07
21760;BME280;11041;50.854;20.580;2022-12-18T09:36:36;100714.84;;;-4.68;82.44
21760;BME280;11041;50.854;20.580;2022-12-18T09:39:03;100715.50;;;-4.74;81.94
21760;BME280;11041;50.854;20.580;2022-12-18T09:41:53;100713.00;;;-4.76;82.91
21760;BME280;11041;50.854;20.580;2022-12-18T09:44:41;100709.47;;;-4.76;82.34
21760;BME280;11041;50.854;20.580;2022-12-18T09:47:20;100726.41;;;-4.76;83.11
21760;BME280;11041;50.854;20.580;2022-12-18T09:50:32;100733.28;;;-4.73;82.66
21760;BME280;11041;50.854;20.580;2022-12-18T09:53:19;100731.44;;;-4.81;83.32
21760;BME280;11041;50.854;20.580;2022-12-18T09:55:49;100723.38;;;-4.81;82.46
21760;BME280;11041;50.854;20.580;2022-12-18T09:58:36;100732.59;;;-4.75;83.01
21760;BME280;11041;50.854;20.580;2022-12-18T10:01:21;100737.28;;;-4.85;83.08
21760;BME280;11041;50.854;20.580;2022-12-18T10:03:50;100738.63;;;-4.81;83.17
21760;BME280;11041;50.854;20.580;2022-12-18T10:06:44;100739.97;;;-4.77;82.76
21760;BME280;11041;50.854;20.580;2022-12-18T10:09:36;100739.47;;;-4.81;82.55
21760;BME280;11041;50.854;20.580;2022-12-18T10:12:20;100743.31;;;-4.92;83.12
21760;BME280;11041;50.854;20.580;2022-12-18T10:15:27;100745.16;;;-5.00;83.89
21760;BME280;11041;50.854;20.580;2022-12-18T10:20:52;100759.72;;;-4.86;83.61
21760;BME280;11041;50.854;20.580;2022-12-18T10:26:18;100728.53;;;-5.04;83.78
21760;BME280;11041;50.854;20.580;2022-12-18T10:28:45;100750.50;;;-4.84;83.90
21760;BME280;11041;50.854;20.580;2022-12-18T10:31:21;100751.88;;;-4.72;83.54
21760;BME280;11041;50.854;20.580;2022-12-18T10:33:48;100737.63;;;-4.72;83.05
21760;BME280;11041;50.854;20.580;2022-12-18T10:36:15;100735.47;;;-4.68;82.87
21760;BME280;11041;50.854;20.580;2022-12-18T10:38:41;100750.69;;;-4.69;82.88
21760;BME280;11041;50.854;20.580;2022-12-18T10:43:48;100736.31;;;-4.76;82.75
21760;BME280;11041;50.854;20.580;2022-12-18T10:46:35;100733.63;;;-4.76;82.93
21760;BME280;11041;50.854;20.580;2022-12-18T10:49:02;100745.00;;;-4.74;82.79
21760;BME280;11041;50.854;20.580;2022-12-18T10:51:36;100732.59;;;-4.75;83.20
21760;BME280;11041;50.854;20.580;2022-12-18T10:54:16;100734.78;;;-4.71;83.09
21760;BME280;11041;50.854;20.580;2022-12-18T10:56:44;100728.41;;;-4.69;83.17
21760;BME280;11041;50.854;20.580;2022-12-18T10:59:16;100734.59;;;-4.69;82.59
21760;BME280;11041;50.854;20.580;2022-12-18T11:01:55;100727.41;;;-4.68;82.08
21760;BME280;11041;50.854;20.580;2022-12-18T11:04:28;100737.63;;;-4.72;81.82
21760;BME280;11041;50.854;20.580;2022-12-18T11:07:08;100734.44;;;-4.84;82.51
21760;BME280;11041;50.854;20.580;2022-12-18T11:09:39;100743.00;;;-4.80;82.41
21760;BME280;11041;50.854;20.580;2022-12-18T11:12:19;100737.28;;;-4.85;82.56
21760;BME280;11041;50.854;20.580;2022-12-18T11:14:52;100747.34;;;-4.87;82.87
21760;BME280;11041;50.854;20.580;2022-12-18T11:17:51;100741.31;;;-4.98;82.50
21760;BME280;11041;50.854;20.580;2022-12-18T11:20:52;100741.94;;;-5.12;83.07
21760;BME280;11041;50.854;20.580;2022-12-18T11:23:51;100740.94;;;-5.11;82.98
21760;BME280;11041;50.854;20.580;2022-12-18T11:26:44;100749.78;;;-5.19;83.04
21760;BME280;11041;50.854;20.580;2022-12-18T11:29:38;100741.06;;;-5.29;83.39
21760;BME280;11041;50.854;20.580;2022-12-18T11:32:43;100729.63;;;-5.39;84.24
21760;BME280;11041;50.854;20.580;2022-12-18T11:35:50;100735.16;;;-5.41;84.34
21760;BME280;11041;50.854;20.580;2022-12-18T11:38:45;100724.75;;;-5.44;84.72
21760;BME280;11041;50.854;20.580;2022-12-18T11:42:17;100726.09;;;-5.48;83.95
21760;BME280;11041;50.854;20.580;2022-12-18T12:18:28;100753.84;;;-5.06;82.58
21760;BME280;11041;50.854;20.580;2022-12-18T12:21:40;100757.72;;;-4.93;82.04
21760;BME280;11041;50.854;20.580;2022-12-18T12:24:29;100755.19;;;-4.86;82.09
21760;BME280;11041;50.854;20.580;2022-12-18T12:30:28;100743.34;;;-4.83;81.36
21760;BME280;11041;50.854;20.580;2022-12-18T12:38:45;100758.19;;;-5.14;82.38
21760;BME280;11041;50.854;20.580;2022-12-18T12:41:17;100764.22;;;-5.11;82.94
21760;BME280;11041;50.854;20.580;2022-12-18T12:44:09;100762.38;;;-5.19;82.71
21760;BME280;11041;50.854;20.580;2022-12-18T12:46:42;100773.03;;;-5.27;83.10
21760;BME280;11041;50.854;20.580;2022-12-18T12:49:19;100780.22;;;-5.36;83.42
21760;BME280;11041;50.854;20.580;2022-12-18T13:23:47;100812.44;;;-5.54;82.80
21760;BME280;11041;50.854;20.580;2022-12-18T13:34:27;100822.31;;;-5.89;85.37
21760;BME280;11041;50.854;20.580;2022-12-18T13:37:42;100825.72;;;-5.79;85.56
21760;BME280;11041;50.854;20.580;2022-12-18T13:46:42;100842.97;;;-5.73;84.72
21760;BME280;11041;50.854;20.580;2022-12-18T13:51:49;100820.63;;;-6.16;85.35
21760;BME280;11041;50.854;20.580;2022-12-18T13:54:39;100800.16;;;-6.25;85.43
21760;BME280;11041;50.854;20.580;2022-12-18T13:57:39;100844.44;;;-5.79;85.91
21760;BME280;11041;50.854;20.580;2022-12-18T14:02:50;100859.00;;;-5.55;85.63
21760;BME280;11041;50.854;20.580;2022-12-18T14:05:32;100817.44;;;-5.59;85.55
21760;BME280;11041;50.854;20.580;2022-12-18T14:08:15;100830.88;;;-5.51;84.19
21760;BME280;11041;50.854;20.580;2022-12-18T14:10:48;100800.97;;;-5.72;84.14
21760;BME280;11041;50.854;20.580;2022-12-18T14:13:31;100794.28;;;-5.68;84.46
21760;BME280;11041;50.854;20.580;2022-12-18T14:16:06;100810.38;;;-5.68;84.14
21760;BME280;11041;50.854;20.580;2022-12-18T14:19:15;100851.91;;;-5.30;82.91
21760;BME280;11041;50.854;20.580;2022-12-18T14:21:57;100833.75;;;-5.44;82.70
21760;BME280;11041;50.854;20.580;2022-12-18T14:24:23;100870.97;;;-5.07;83.04
21760;BME280;11041;50.854;20.580;2022-12-18T14:26:51;100862.56;;;-5.12;83.29
21760;BME280;11041;50.854;20.580;2022-12-18T14:29:28;100852.75;;;-5.29;83.40
21760;BME280;11041;50.854;20.580;2022-12-18T14:32:15;100884.19;;;-5.05;83.56
21760;BME280;11041;50.854;20.580;2022-12-18T14:34:53;100882.38;;;-5.05;82.88
21760;BME280;11041;50.854;20.580;2022-12-18T14:37:26;100859.34;;;-5.16;83.17
21760;BME280;11041;50.854;20.580;2022-12-18T14:40:03;100786.69;;;-5.55;83.30
21760;BME280;11041;50.854;20.580;2022-12-18T14:42:31;100870.97;;;-4.99;83.32
21760;BME280;11041;50.854;20.580;2022-12-18T14:45:35;100875.53;;;-4.91;83.24
21760;BME280;11041;50.854;20.580;2022-12-18T14:48:19;100843.94;;;-5.14;81.50
21760;BME280;11041;50.854;20.580;2022-12-18T14:51:01;100885.53;;;-5.09;81.50
21760;BME280;11041;50.854;20.580;2022-12-18T14:53:36;100822.31;;;-5.54;81.60
21760;BME280;11041;50.854;20.580;2022-12-18T14:56:31;100897.72;;;-5.15;82.61
21760;BME280;11041;50.854;20.580;2022-12-18T14:59:06;100893.34;;;-5.24;83.08
21760;BME280;11041;50.854;20.580;2022-12-18T15:05:05;100884.34;;;-5.41;83.47
21760;BME280;11041;50.854;20.580;2022-12-18T15:07:48;100872.56;;;-5.48;83.42
21760;BME280;11041;50.854;20.580;2022-12-18T15:21:10;100895.81;;;-5.31;83.87
21760;BME280;11041;50.854;20.580;2022-12-18T15:23:46;100908.53;;;-5.25;83.95
21760;BME280;11041;50.854;20.580;2022-12-18T15:26:18;100890.94;;;-5.27;83.41
21760;BME280;11041;50.854;20.580;2022-12-18T15:28:54;100887.59;;;-5.29;83.87
21760;BME280;11041;50.854;20.580;2022-12-18T15:31:33;100884.16;;;-5.48;83.90
21760;BME280;11041;50.854;20.580;2022-12-18T15:34:19;100895.47;;;-5.28;83.71
21760;BME280;11041;50.854;20.580;2022-12-18T15:36:47;100886.66;;;-5.46;83.63
21760;BME280;11041;50.854;20.580;2022-12-18T15:39:14;100908.84;;;-5.36;84.31
21760;BME280;11041;50.854;20.580;2022-12-18T15:41:41;100841.44;;;-5.75;84.17
21760;BME280;11041;50.854;20.580;2022-12-18T15:44:27;100874.75;;;-5.52;83.89
21760;BME280;11041;50.854;20.580;2022-12-18T15:46:58;100855.75;;;-5.67;84.11
21760;BME280;11041;50.854;20.580;2022-12-18T15:49:25;100885.09;;;-5.57;83.96
21760;BME280;11041;50.854;20.580;2022-12-18T15:51:57;100904.56;;;-5.47;84.14
21760;BME280;11041;50.854;20.580;2022-12-18T15:54:24;100922.28;;;-5.28;83.83
21760;BME280;11041;50.854;20.580;2022-12-18T15:57:11;100923.75;;;-5.33;83.84
21760;BME280;11041;50.854;20.580;2022-12-18T15:59:55;100894.81;;;-5.56;84.00
21760;BME280;11041;50.854;20.580;2022-12-18T16:02:25;100938.13;;;-5.35;84.36
21760;BME280;11041;50.854;20.580;2022-12-18T16:04:52;100898.63;;;-5.59;83.75
21760;BME280;11041;50.854;20.580;2022-12-18T16:07:20;100921.00;;;-5.42;84.09
21760;BME280;11041;50.854;20.580;2022-12-18T16:09:50;100916.69;;;-5.35;84.62
21760;BME280;11041;50.854;20.580;2022-12-18T16:12:22;100933.81;;;-5.27;84.59
21760;BME280;11041;50.854;20.580;2022-12-18T16:14:50;100938.91;;;-5.24;84.44
21760;BME280;11041;50.854;20.580;2022-12-18T16:17:17;100903.47;;;-5.36;84.21
21760;BME280;11041;50.854;20.580;2022-12-18T16:19:44;100940.91;;;-5.18;84.07
21760;BME280;11041;50.854;20.580;2022-12-18T16:22:23;100941.59;;;-5.16;84.02
21760;BME280;11041;50.854;20.580;2022-12-18T16:24:52;100938.56;;;-5.21;84.15
21760;BME280;11041;50.854;20.580;2022-12-18T16:27:20;100934.53;;;-5.17;84.33